sensor_id;sensor_type;location;lat;lon;timestamp;P1;durP1;ratioP1;P2;durP2;ratioP2
47219;SDS011;32961;51.936;4.788;2023-03-20T00:02:00;13.38;;;6.47;;
47219;SDS011;32961;51.936;4.788;2023-03-20T00:04:28;14.70;;;6.25;;
47219;SDS011;32961;51.936;4.788;2023-03-20T00:06:56;10.38;;;5.70;;
47219;SDS011;32961;51.936;4.788;2023-03-20T00:09:24;21.33;;;7.78;;
47219;SDS011;32961;51.936;4.788;2023-03-20T00:11:52;15.30;;;6.45;;
47219;SDS011;32961;51.936;4.788;2023-03-20T00:14:23;12.80;;;6.35;;
47219;SDS011;32961;51.936;4.788;2023-03-20T00:16:51;17.25;;;6.45;;
47219;SDS011;32961;51.936;4.788;2023-03-20T00:19:20;17.25;;;7.00;;
47219;SDS011;32961;51.936;4.788;2023-03-20T00:21:49;18.38;;;6.78;;
47219;SDS011;32961;51.936;4.788;2023-03-20T00:24:20;17.80;;;7.50;;
47219;SDS011;32961;51.936;4.788;2023-03-20T00:26:49;11.80;;;6.45;;
47219;SDS011;32961;51.936;4.788;2023-03-20T00:29:20;21.52;;;7.68;;
47219;SDS011;32961;51.936;4.788;2023-03-20T00:31:50;14.13;;;8.23;;
47219;SDS011;32961;51.936;4.788;2023-03-20T00:34:20;18.13;;;7.47;;
47219;SDS011;32961;51.936;4.788;2023-03-20T00:36:49;17.15;;;7.75;;
47219;SDS011;32961;51.936;4.788;2023-03-20T00:39:19;18.23;;;8.82;;
47219;SDS011;32961;51.936;4.788;2023-03-20T00:41:50;17.65;;;8.50;;
47219;SDS011;32961;51.936;4.788;2023-03-20T00:44:20;24.77;;;8.70;;
47219;SDS011;32961;51.936;4.788;2023-03-20T00:46:52;19.75;;;9.00;;
47219;SDS011;32961;51.936;4.788;2023-03-20T00:49:23;24.23;;;9.90;;
47219;SDS011;32961;51.936;4.788;2023-03-20T00:51:54;22.90;;;10.50;;
47219;SDS011;32961;51.936;4.788;2023-03-20T00:54:21;16.90;;;9.70;;
47219;SDS011;32961;51.936;4.788;2023-03-20T00:56:50;21.08;;;9.00;;
47219;SDS011;32961;51.936;4.788;2023-03-20T00:59:23;19.40;;;8.65;;
47219;SDS011;32961;51.936;4.788;2023-03-20T01:01:56;23.48;;;9.93;;
47219;SDS011;32961;51.936;4.788;2023-03-20T01:04:23;21.42;;;9.55;;
47219;SDS011;32961;51.936;4.788;2023-03-20T01:06:56;23.90;;;9.93;;
47219;SDS011;32961;51.936;4.788;2023-03-20T01:09:24;26.60;;;11.57;;
47219;SDS011;32961;51.936;4.788;2023-03-20T01:11:52;18.30;;;11.07;;
47219;SDS011;32961;51.936;4.788;2023-03-20T01:14:20;22.67;;;12.75;;
47219;SDS011;32961;51.936;4.788;2023-03-20T01:16:47;27.52;;;11.82;;
47219;SDS011;32961;51.936;4.788;2023-03-20T01:19:17;21.55;;;10.32;;
47219;SDS011;32961;51.936;4.788;2023-03-20T01:21:44;20.02;;;10.55;;
47219;SDS011;32961;51.936;4.788;2023-03-20T01:24:12;23.92;;;11.63;;
47219;SDS011;32961;51.936;4.788;2023-03-20T01:26:41;23.45;;;11.60;;
47219;SDS011;32961;51.936;4.788;2023-03-20T01:29:12;24.58;;;11.93;;
47219;SDS011;32961;51.936;4.788;2023-03-20T01:31:44;28.10;;;11.25;;
47219;SDS011;32961;51.936;4.788;2023-03-20T01:34:12;24.05;;;12.93;;
47219;SDS011;32961;51.936;4.788;2023-03-20T01:36:43;25.10;;;11.27;;
47219;SDS011;32961;51.936;4.788;2023-03-20T01:39:16;22.92;;;12.35;;
47219;SDS011;32961;51.936;4.788;2023-03-20T01:41:44;21.77;;;11.55;;
47219;SDS011;32961;51.936;4.788;2023-03-20T01:44:17;24.35;;;11.55;;
47219;SDS011;32961;51.936;4.788;2023-03-20T01:46:47;30.65;;;13.25;;
47219;SDS011;32961;51.936;4.788;2023-03-20T01:52:22;19.45;;;11.57;;
47219;SDS011;32961;51.936;4.788;2023-03-20T01:54:51;31.02;;;16.35;;
47219;SDS011;32961;51.936;4.788;2023-03-20T01:57:19;23.42;;;12.25;;
47219;SDS011;32961;51.936;4.788;2023-03-20T01:59:51;35.00;;;16.63;;
47219;SDS011;32961;51.936;4.788;2023-03-20T02:02:24;30.30;;;12.63;;
47219;SDS011;32961;51.936;4.788;2023-03-20T02:04:57;30.17;;;15.15;;
47219;SDS011;32961;51.936;4.788;2023-03-20T02:07:29;29.67;;;15.83;;
47219;SDS011;32961;51.936;4.788;2023-03-20T02:09:59;25.83;;;13.90;;
47219;SDS011;32961;51.936;4.788;2023-03-20T02:12:28;26.77;;;13.32;;
47219;SDS011;32961;51.936;4.788;2023-03-20T02:14:56;24.77;;;12.55;;
47219;SDS011;32961;51.936;4.788;2023-03-20T02:17:24;27.77;;;13.00;;
47219;SDS011;32961;51.936;4.788;2023-03-20T02:19:55;22.98;;;12.18;;
47219;SDS011;32961;51.936;4.788;2023-03-20T02:25:57;25.80;;;11.73;;
47219;SDS011;32961;51.936;4.788;2023-03-20T02:28:56;24.52;;;11.50;;
47219;SDS011;32961;51.936;4.788;2023-03-20T02:32:05;26.75;;;12.00;;
47219;SDS011;32961;51.936;4.788;2023-03-20T02:34:56;23.83;;;11.38;;
47219;SDS011;32961;51.936;4.788;2023-03-20T02:37:57;24.25;;;11.82;;
47219;SDS011;32961;51.936;4.788;2023-03-20T02:40:46;25.65;;;11.50;;
47219;SDS011;32961;51.936;4.788;2023-03-20T02:43:22;23.45;;;11.38;;
47219;SDS011;32961;51.936;4.788;2023-03-20T02:45:56;25.02;;;14.48;;
47219;SDS011;32961;51.936;4.788;2023-03-20T02:48:35;31.10;;;14.60;;
47219;SDS011;32961;51.936;4.788;2023-03-20T02:51:11;25.05;;;11.20;;
47219;SDS011;32961;51.936;4.788;2023-03-20T02:53:48;26.60;;;10.73;;
47219;SDS011;32961;51.936;4.788;2023-03-20T02:56:21;22.80;;;11.25;;
47219;SDS011;32961;51.936;4.788;2023-03-20T02:58:56;20.00;;;9.52;;
47219;SDS011;32961;51.936;4.788;2023-03-20T03:01:30;19.55;;;9.65;;
47219;SDS011;32961;51.936;4.788;2023-03-20T03:04:03;24.52;;;10.38;;
47219;SDS011;32961;51.936;4.788;2023-03-20T03:06:36;25.70;;;9.77;;
47219;SDS011;32961;51.936;4.788;2023-03-20T03:09:09;18.15;;;10.18;;
47219;SDS011;32961;51.936;4.788;2023-03-20T03:11:44;23.83;;;11.23;;
47219;SDS011;32961;51.936;4.788;2023-03-20T03:14:27;25.83;;;9.88;;
47219;SDS011;32961;51.936;4.788;2023-03-20T03:16:59;22.05;;;10.40;;
47219;SDS011;32961;51.936;4.788;2023-03-20T03:19:28;22.98;;;10.48;;
47219;SDS011;32961;51.936;4.788;2023-03-20T03:21:59;25.02;;;9.82;;
47219;SDS011;32961;51.936;4.788;2023-03-20T03:24:29;18.50;;;9.00;;
47219;SDS011;32961;51.936;4.788;2023-03-20T03:27:12;19.98;;;9.35;;
47219;SDS011;32961;51.936;4.788;2023-03-20T03:29:47;22.83;;;9.88;;
47219;SDS011;32961;51.936;4.788;2023-03-20T03:32:22;22.05;;;10.40;;
47219;SDS011;32961;51.936;4.788;2023-03-20T03:34:54;20.48;;;9.70;;
47219;SDS011;32961;51.936;4.788;2023-03-20T03:37:26;20.80;;;8.82;;
47219;SDS011;32961;51.936;4.788;2023-03-20T03:40:06;23.27;;;10.50;;
47219;SDS011;32961;51.936;4.788;2023-03-20T03:42:46;22.48;;;9.05;;
47219;SDS011;32961;51.936;4.788;2023-03-20T03:45:22;17.50;;;9.27;;
47219;SDS011;32961;51.936;4.788;2023-03-20T03:47:57;25.17;;;10.30;;
47219;SDS011;32961;51.936;4.788;2023-03-20T03:50:30;23.02;;;8.63;;
47219;SDS011;32961;51.936;4.788;2023-03-20T03:53:05;22.65;;;10.13;;
47219;SDS011;32961;51.936;4.788;2023-03-20T03:55:38;19.05;;;9.60;;
47219;SDS011;32961;51.936;4.788;2023-03-20T03:58:10;18.17;;;8.98;;
47219;SDS011;32961;51.936;4.788;2023-03-20T04:00:42;18.17;;;9.63;;
47219;SDS011;32961;51.936;4.788;2023-03-20T04:03:13;20.52;;;9.38;;
47219;SDS011;32961;51.936;4.788;2023-03-20T04:05:42;22.45;;;9.93;;
47219;SDS011;32961;51.936;4.788;2023-03-20T04:08:12;21.33;;;9.27;;
47219;SDS011;32961;51.936;4.788;2023-03-20T04:10:43;19.90;;;9.60;;
47219;SDS011;32961;51.936;4.788;2023-03-20T04:13:11;22.15;;;10.90;;
47219;SDS011;32961;51.936;4.788;2023-03-20T04:15:38;20.35;;;10.60;;
47219;SDS011;32961;51.936;4.788;2023-03-20T04:18:06;21.63;;;10.02;;
47219;SDS011;32961;51.936;4.788;2023-03-20T04:20:34;25.80;;;10.40;;
47219;SDS011;32961;51.936;4.788;2023-03-20T04:23:02;22.20;;;10.73;;
47219;SDS011;32961;51.936;4.788;2023-03-20T04:25:30;20.20;;;9.65;;
47219;SDS011;32961;51.936;4.788;2023-03-20T04:28:00;25.52;;;11.68;;
47219;SDS011;32961;51.936;4.788;2023-03-20T04:30:28;22.77;;;10.60;;
47219;SDS011;32961;51.936;4.788;2023-03-20T04:32:56;19.33;;;10.68;;
47219;SDS011;32961;51.936;4.788;2023-03-20T04:35:24;28.13;;;11.90;;
47219;SDS011;32961;51.936;4.788;2023-03-20T04:37:51;23.30;;;10.50;;
47219;SDS011;32961;51.936;4.788;2023-03-20T04:40:19;20.15;;;10.93;;
47219;SDS011;32961;51.936;4.788;2023-03-20T04:42:47;25.85;;;11.77;;
47219;SDS011;32961;51.936;4.788;2023-03-20T04:45:16;28.23;;;12.55;;
47219;SDS011;32961;51.936;4.788;2023-03-20T04:47:44;28.15;;;10.70;;
47219;SDS011;32961;51.936;4.788;2023-03-20T04:50:12;23.83;;;11.07;;
47219;SDS011;32961;51.936;4.788;2023-03-20T04:52:40;23.20;;;11.20;;
47219;SDS011;32961;51.936;4.788;2023-03-20T04:55:08;22.65;;;11.23;;
47219;SDS011;32961;51.936;4.788;2023-03-20T04:57:36;22.80;;;11.20;;
47219;SDS011;32961;51.936;4.788;2023-03-20T05:00:04;18.70;;;10.88;;
47219;SDS011;32961;51.936;4.788;2023-03-20T05:02:34;22.08;;;11.32;;
47219;SDS011;32961;51.936;4.788;2023-03-20T05:05:02;25.40;;;11.63;;
47219;SDS011;32961;51.936;4.788;2023-03-20T05:07:30;21.33;;;11.15;;
47219;SDS011;32961;51.936;4.788;2023-03-20T05:09:59;23.35;;;11.02;;
47219;SDS011;32961;51.936;4.788;2023-03-20T05:12:26;21.77;;;11.10;;
47219;SDS011;32961;51.936;4.788;2023-03-20T05:14:54;19.88;;;11.15;;
47219;SDS011;32961;51.936;4.788;2023-03-20T05:17:22;24.00;;;12.02;;
47219;SDS011;32961;51.936;4.788;2023-03-20T05:19:52;26.23;;;10.70;;
47219;SDS011;32961;51.936;4.788;2023-03-20T05:22:20;23.50;;;10.57;;
47219;SDS011;32961;51.936;4.788;2023-03-20T05:24:47;30.20;;;11.95;;
47219;SDS011;32961;51.936;4.788;2023-03-20T05:27:15;24.05;;;11.18;;
47219;SDS011;32961;51.936;4.788;2023-03-20T05:29:43;27.00;;;13.10;;
47219;SDS011;32961;51.936;4.788;2023-03-20T05:32:11;26.77;;;12.80;;
47219;SDS011;32961;51.936;4.788;2023-03-20T05:34:39;19.42;;;10.68;;
47219;SDS011;32961;51.936;4.788;2023-03-20T05:37:08;26.80;;;11.30;;
47219;SDS011;32961;51.936;4.788;2023-03-20T05:39:36;25.20;;;11.40;;
47219;SDS011;32961;51.936;4.788;2023-03-20T05:42:04;24.30;;;11.10;;
47219;SDS011;32961;51.936;4.788;2023-03-20T05:44:31;29.65;;;11.68;;
47219;SDS011;32961;51.936;4.788;2023-03-20T05:46:59;31.23;;;12.50;;
47219;SDS011;32961;51.936;4.788;2023-03-20T05:49:27;22.40;;;11.38;;
47219;SDS011;32961;51.936;4.788;2023-03-20T05:51:55;21.90;;;10.10;;
47219;SDS011;32961;51.936;4.788;2023-03-20T05:54:24;20.77;;;11.02;;
47219;SDS011;32961;51.936;4.788;2023-03-20T05:56:52;29.67;;;11.25;;
47219;SDS011;32961;51.936;4.788;2023-03-20T05:59:22;21.40;;;11.20;;
47219;SDS011;32961;51.936;4.788;2023-03-20T06:01:50;29.15;;;12.25;;
47219;SDS011;32961;51.936;4.788;2023-03-20T06:04:17;33.22;;;12.57;;
47219;SDS011;32961;51.936;4.788;2023-03-20T06:06:45;21.73;;;10.48;;
47219;SDS011;32961;51.936;4.788;2023-03-20T06:09:13;29.17;;;13.20;;
47219;SDS011;32961;51.936;4.788;2023-03-20T06:11:42;21.70;;;10.27;;
47219;SDS011;32961;51.936;4.788;2023-03-20T06:14:10;26.25;;;10.15;;
47219;SDS011;32961;51.936;4.788;2023-03-20T06:16:38;18.88;;;10.40;;
47219;SDS011;32961;51.936;4.788;2023-03-20T06:19:06;19.67;;;9.95;;
47219;SDS011;32961;51.936;4.788;2023-03-20T06:21:34;23.77;;;10.70;;
47219;SDS011;32961;51.936;4.788;2023-03-20T06:24:01;25.02;;;10.35;;
47219;SDS011;32961;51.936;4.788;2023-03-20T06:26:29;28.10;;;10.75;;
47219;SDS011;32961;51.936;4.788;2023-03-20T06:28:58;18.85;;;9.73;;
47219;SDS011;32961;51.936;4.788;2023-03-20T06:31:26;23.50;;;9.63;;
47219;SDS011;32961;51.936;4.788;2023-03-20T06:33:54;28.70;;;10.75;;
47219;SDS011;32961;51.936;4.788;2023-03-20T06:36:22;33.42;;;15.30;;
47219;SDS011;32961;51.936;4.788;2023-03-20T06:38:50;27.08;;;10.40;;
47219;SDS011;32961;51.936;4.788;2023-03-20T06:41:18;17.77;;;9.02;;
47219;SDS011;32961;51.936;4.788;2023-03-20T06:44:00;20.40;;;8.90;;
47219;SDS011;32961;51.936;4.788;2023-03-20T06:46:28;25.00;;;9.88;;
47219;SDS011;32961;51.936;4.788;2023-03-20T06:48:56;23.85;;;9.45;;
47219;SDS011;32961;51.936;4.788;2023-03-20T06:51:24;28.75;;;14.02;;
47219;SDS011;32961;51.936;4.788;2023-03-20T06:53:52;25.15;;;10.00;;
47219;SDS011;32961;51.936;4.788;2023-03-20T06:56:20;18.02;;;8.45;;
47219;SDS011;32961;51.936;4.788;2023-03-20T06:58:47;24.27;;;8.90;;
47219;SDS011;32961;51.936;4.788;2023-03-20T07:01:16;28.70;;;9.50;;
47219;SDS011;32961;51.936;4.788;2023-03-20T07:03:45;18.52;;;8.27;;
47219;SDS011;32961;51.936;4.788;2023-03-20T07:06:13;25.00;;;8.38;;
47219;SDS011;32961;51.936;4.788;2023-03-20T07:08:41;28.15;;;11.07;;
47219;SDS011;32961;51.936;4.788;2023-03-20T07:11:09;27.40;;;10.85;;
47219;SDS011;32961;51.936;4.788;2023-03-20T07:13:37;21.17;;;7.85;;
47219;SDS011;32961;51.936;4.788;2023-03-20T07:16:05;21.17;;;7.60;;
47219;SDS011;32961;51.936;4.788;2023-03-20T07:18:35;24.67;;;8.10;;
47219;SDS011;32961;51.936;4.788;2023-03-20T07:21:04;19.08;;;7.30;;
47219;SDS011;32961;51.936;4.788;2023-03-20T07:23:33;17.65;;;7.65;;
47219;SDS011;32961;51.936;4.788;2023-03-20T07:26:01;24.73;;;9.13;;
47219;SDS011;32961;51.936;4.788;2023-03-20T07:28:30;24.75;;;10.00;;
47219;SDS011;32961;51.936;4.788;2023-03-20T07:30:58;21.63;;;7.60;;
47219;SDS011;32961;51.936;4.788;2023-03-20T07:33:26;19.67;;;6.82;;
47219;SDS011;32961;51.936;4.788;2023-03-20T07:35:55;17.33;;;7.43;;
47219;SDS011;32961;51.936;4.788;2023-03-20T07:38:23;24.65;;;7.10;;
47219;SDS011;32961;51.936;4.788;2023-03-20T07:40:52;20.55;;;7.72;;
47219;SDS011;32961;51.936;4.788;2023-03-20T07:43:20;17.67;;;7.85;;
47219;SDS011;32961;51.936;4.788;2023-03-20T07:45:48;20.58;;;7.85;;
47219;SDS011;32961;51.936;4.788;2023-03-20T07:48:16;14.48;;;6.38;;
47219;SDS011;32961;51.936;4.788;2023-03-20T07:50:44;17.90;;;6.28;;
47219;SDS011;32961;51.936;4.788;2023-03-20T07:53:13;16.88;;;7.10;;
47219;SDS011;32961;51.936;4.788;2023-03-20T07:55:42;17.88;;;6.68;;
47219;SDS011;32961;51.936;4.788;2023-03-20T07:58:10;20.23;;;7.53;;
47219;SDS011;32961;51.936;4.788;2023-03-20T08:00:38;21.38;;;7.53;;
47219;SDS011;32961;51.936;4.788;2023-03-20T08:03:06;22.20;;;8.23;;
47219;SDS011;32961;51.936;4.788;2023-03-20T08:05:34;20.40;;;7.78;;
47219;SDS011;32961;51.936;4.788;2023-03-20T08:08:03;16.45;;;6.93;;
47219;SDS011;32961;51.936;4.788;2023-03-20T08:10:32;16.90;;;6.00;;
47219;SDS011;32961;51.936;4.788;2023-03-20T08:13:00;23.30;;;6.40;;
47219;SDS011;32961;51.936;4.788;2023-03-20T08:15:28;28.13;;;7.40;;
47219;SDS011;32961;51.936;4.788;2023-03-20T08:17:56;22.77;;;6.90;;
47219;SDS011;32961;51.936;4.788;2023-03-20T08:20:24;22.80;;;6.47;;
47219;SDS011;32961;51.936;4.788;2023-03-20T08:22:52;20.40;;;6.55;;
47219;SDS011;32961;51.936;4.788;2023-03-20T08:25:20;18.63;;;6.63;;
47219;SDS011;32961;51.936;4.788;2023-03-20T08:27:49;20.75;;;7.13;;
47219;SDS011;32961;51.936;4.788;2023-03-20T08:30:17;39.63;;;9.55;;
47219;SDS011;32961;51.936;4.788;2023-03-20T08:32:45;16.60;;;6.03;;
47219;SDS011;32961;51.936;4.788;2023-03-20T08:35:12;20.48;;;6.85;;
47219;SDS011;32961;51.936;4.788;2023-03-20T08:37:58;21.67;;;6.32;;
47219;SDS011;32961;51.936;4.788;2023-03-20T08:40:26;19.65;;;5.97;;
47219;SDS011;32961;51.936;4.788;2023-03-20T08:42:55;18.02;;;5.68;;
47219;SDS011;32961;51.936;4.788;2023-03-20T08:45:23;20.85;;;6.50;;
47219;SDS011;32961;51.936;4.788;2023-03-20T08:47:52;14.68;;;6.75;;
47219;SDS011;32961;51.936;4.788;2023-03-20T08:50:21;15.82;;;6.28;;
47219;SDS011;32961;51.936;4.788;2023-03-20T08:52:50;21.13;;;6.63;;
47219;SDS011;32961;51.936;4.788;2023-03-20T08:55:17;22.98;;;6.97;;
47219;SDS011;32961;51.936;4.788;2023-03-20T08:57:46;21.83;;;8.55;;
47219;SDS011;32961;51.936;4.788;2023-03-20T09:00:15;21.40;;;7.70;;
47219;SDS011;32961;51.936;4.788;2023-03-20T09:02:45;16.42;;;7.22;;
47219;SDS011;32961;51.936;4.788;2023-03-20T09:05:13;20.73;;;6.55;;
47219;SDS011;32961;51.936;4.788;2023-03-20T09:07:41;16.67;;;6.93;;
47219;SDS011;32961;51.936;4.788;2023-03-20T09:10:10;23.70;;;6.15;;
47219;SDS011;32961;51.936;4.788;2023-03-20T09:12:38;16.65;;;6.70;;
47219;SDS011;32961;51.936;4.788;2023-03-20T09:15:06;17.98;;;6.63;;
47219;SDS011;32961;51.936;4.788;2023-03-20T09:17:36;22.17;;;7.47;;
47219;SDS011;32961;51.936;4.788;2023-03-20T09:20:04;17.58;;;6.20;;
47219;SDS011;32961;51.936;4.788;2023-03-20T09:22:33;20.92;;;6.68;;
47219;SDS011;32961;51.936;4.788;2023-03-20T09:25:01;23.35;;;6.90;;
47219;SDS011;32961;51.936;4.788;2023-03-20T09:27:29;19.63;;;6.43;;
47219;SDS011;32961;51.936;4.788;2023-03-20T09:29:57;19.67;;;6.80;;
47219;SDS011;32961;51.936;4.788;2023-03-20T09:32:25;23.00;;;8.90;;
47219;SDS011;32961;51.936;4.788;2023-03-20T09:34:54;20.95;;;6.70;;
47219;SDS011;32961;51.936;4.788;2023-03-20T09:37:22;17.30;;;6.85;;
47219;SDS011;32961;51.936;4.788;2023-03-20T09:39:50;25.88;;;10.68;;
47219;SDS011;32961;51.936;4.788;2023-03-20T09:42:21;23.50;;;8.15;;
47219;SDS011;32961;51.936;4.788;2023-03-20T09:45:00;19.90;;;7.60;;
47219;SDS011;32961;51.936;4.788;2023-03-20T09:47:39;21.35;;;7.75;;
47219;SDS011;32961;51.936;4.788;2023-03-20T09:50:19;20.65;;;6.78;;
47219;SDS011;32961;51.936;4.788;2023-03-20T09:52:56;24.15;;;7.70;;
47219;SDS011;32961;51.936;4.788;2023-03-20T09:55:33;21.15;;;8.43;;
47219;SDS011;32961;51.936;4.788;2023-03-20T09:58:04;26.05;;;7.60;;
47219;SDS011;32961;51.936;4.788;2023-03-20T10:00:39;25.42;;;8.93;;
47219;SDS011;32961;51.936;4.788;2023-03-20T10:03:14;28.25;;;8.50;;
47219;SDS011;32961;51.936;4.788;2023-03-20T10:05:48;21.92;;;8.68;;
47219;SDS011;32961;51.936;4.788;2023-03-20T10:08:24;31.75;;;8.73;;
47219;SDS011;32961;51.936;4.788;2023-03-20T10:10:56;20.63;;;8.88;;
47219;SDS011;32961;51.936;4.788;2023-03-20T10:13:42;22.33;;;8.70;;
47219;SDS011;32961;51.936;4.788;2023-03-20T10:16:23;28.05;;;8.95;;
47219;SDS011;32961;51.936;4.788;2023-03-20T10:19:04;21.75;;;8.82;;
47219;SDS011;32961;51.936;4.788;2023-03-20T10:21:41;30.17;;;12.18;;
47219;SDS011;32961;51.936;4.788;2023-03-20T10:24:12;27.77;;;10.80;;
47219;SDS011;32961;51.936;4.788;2023-03-20T10:26:46;20.98;;;10.60;;
47219;SDS011;32961;51.936;4.788;2023-03-20T10:29:18;26.17;;;9.32;;
47219;SDS011;32961;51.936;4.788;2023-03-20T10:31:59;22.73;;;10.75;;
47219;SDS011;32961;51.936;4.788;2023-03-20T10:34:38;25.63;;;9.82;;
47219;SDS011;32961;51.936;4.788;2023-03-20T10:37:20;34.78;;;13.45;;
47219;SDS011;32961;51.936;4.788;2023-03-20T10:40:00;19.42;;;9.52;;
47219;SDS011;32961;51.936;4.788;2023-03-20T10:42:41;23.30;;;10.25;;
47219;SDS011;32961;51.936;4.788;2023-03-20T10:45:17;26.95;;;10.77;;
47219;SDS011;32961;51.936;4.788;2023-03-20T10:47:56;20.83;;;10.90;;
47219;SDS011;32961;51.936;4.788;2023-03-20T10:50:27;21.08;;;10.88;;
47219;SDS011;32961;51.936;4.788;2023-03-20T10:53:00;24.92;;;9.07;;
47219;SDS011;32961;51.936;4.788;2023-03-20T10:55:31;26.35;;;10.23;;
47219;SDS011;32961;51.936;4.788;2023-03-20T10:58:04;21.83;;;9.20;;
47219;SDS011;32961;51.936;4.788;2023-03-20T11:00:44;31.60;;;9.45;;
47219;SDS011;32961;51.936;4.788;2023-03-20T11:03:16;18.60;;;8.10;;
47219;SDS011;32961;51.936;4.788;2023-03-20T11:05:53;29.80;;;9.55;;
47219;SDS011;32961;51.936;4.788;2023-03-20T11:08:40;28.58;;;9.68;;
47219;SDS011;32961;51.936;4.788;2023-03-20T11:11:09;24.48;;;9.45;;
47219;SDS011;32961;51.936;4.788;2023-03-20T11:13:37;24.23;;;8.73;;
47219;SDS011;32961;51.936;4.788;2023-03-20T11:16:16;24.42;;;9.07;;
47219;SDS011;32961;51.936;4.788;2023-03-20T11:18:46;31.73;;;9.18;;
47219;SDS011;32961;51.936;4.788;2023-03-20T11:21:19;23.67;;;9.23;;
47219;SDS011;32961;51.936;4.788;2023-03-20T11:23:50;27.35;;;8.93;;
47219;SDS011;32961;51.936;4.788;2023-03-20T11:26:19;22.45;;;9.63;;
47219;SDS011;32961;51.936;4.788;2023-03-20T11:28:58;25.73;;;9.45;;
47219;SDS011;32961;51.936;4.788;2023-03-20T11:31:28;23.77;;;8.98;;
47219;SDS011;32961;51.936;4.788;2023-03-20T11:34:08;27.05;;;10.98;;
47219;SDS011;32961;51.936;4.788;2023-03-20T11:36:46;22.42;;;9.57;;
47219;SDS011;32961;51.936;4.788;2023-03-20T11:39:36;27.42;;;10.25;;
47219;SDS011;32961;51.936;4.788;2023-03-20T11:42:20;30.10;;;10.55;;
47219;SDS011;32961;51.936;4.788;2023-03-20T11:44:55;20.85;;;8.88;;
47219;SDS011;32961;51.936;4.788;2023-03-20T11:47:25;30.42;;;9.65;;
47219;SDS011;32961;51.936;4.788;2023-03-20T11:49:54;31.90;;;10.45;;
47219;SDS011;32961;51.936;4.788;2023-03-20T11:52:25;25.92;;;9.85;;
47219;SDS011;32961;51.936;4.788;2023-03-20T11:54:58;21.30;;;8.45;;
47219;SDS011;32961;51.936;4.788;2023-03-20T11:57:30;22.17;;;10.00;;
47219;SDS011;32961;51.936;4.788;2023-03-20T12:00:04;22.55;;;8.18;;
47219;SDS011;32961;51.936;4.788;2023-03-20T12:02:34;25.33;;;8.35;;
47219;SDS011;32961;51.936;4.788;2023-03-20T12:05:16;24.70;;;8.55;;
47219;SDS011;32961;51.936;4.788;2023-03-20T12:07:53;19.80;;;8.18;;
47219;SDS011;32961;51.936;4.788;2023-03-20T12:10:27;20.60;;;8.15;;
47219;SDS011;32961;51.936;4.788;2023-03-20T12:13:00;22.33;;;8.10;;
47219;SDS011;32961;51.936;4.788;2023-03-20T12:18:02;24.25;;;8.93;;
47219;SDS011;32961;51.936;4.788;2023-03-20T12:20:37;31.80;;;9.45;;
47219;SDS011;32961;51.936;4.788;2023-03-20T12:23:11;22.65;;;10.63;;
47219;SDS011;32961;51.936;4.788;2023-03-20T12:25:44;25.27;;;9.35;;
47219;SDS011;32961;51.936;4.788;2023-03-20T12:28:17;23.58;;;8.60;;
47219;SDS011;32961;51.936;4.788;2023-03-20T12:30:56;24.40;;;8.50;;
47219;SDS011;32961;51.936;4.788;2023-03-20T12:33:34;26.45;;;8.48;;
47219;SDS011;32961;51.936;4.788;2023-03-20T12:36:10;29.42;;;9.40;;
47219;SDS011;32961;51.936;4.788;2023-03-20T12:38:40;27.30;;;9.10;;
47219;SDS011;32961;51.936;4.788;2023-03-20T12:41:12;21.05;;;7.85;;
47219;SDS011;32961;51.936;4.788;2023-03-20T12:43:45;23.00;;;8.07;;
47219;SDS011;32961;51.936;4.788;2023-03-20T12:46:29;22.42;;;7.80;;
47219;SDS011;32961;51.936;4.788;2023-03-20T12:49:06;27.92;;;8.05;;
47219;SDS011;32961;51.936;4.788;2023-03-20T12:51:45;19.65;;;7.65;;
47219;SDS011;32961;51.936;4.788;2023-03-20T12:54:26;19.02;;;7.93;;
47219;SDS011;32961;51.936;4.788;2023-03-20T12:57:09;29.48;;;8.60;;
47219;SDS011;32961;51.936;4.788;2023-03-20T12:59:49;24.95;;;8.10;;
47219;SDS011;32961;51.936;4.788;2023-03-20T13:02:32;21.00;;;8.90;;
47219;SDS011;32961;51.936;4.788;2023-03-20T13:05:08;24.02;;;8.30;;
47219;SDS011;32961;51.936;4.788;2023-03-20T13:07:52;33.60;;;8.40;;
47219;SDS011;32961;51.936;4.788;2023-03-20T13:10:40;29.10;;;8.10;;
47219;SDS011;32961;51.936;4.788;2023-03-20T13:13:15;22.45;;;7.70;;
47219;SDS011;32961;51.936;4.788;2023-03-20T13:15:56;21.77;;;8.57;;
47219;SDS011;32961;51.936;4.788;2023-03-20T13:18:38;22.73;;;8.82;;
47219;SDS011;32961;51.936;4.788;2023-03-20T13:21:15;22.33;;;9.05;;
47219;SDS011;32961;51.936;4.788;2023-03-20T13:23:52;26.83;;;9.73;;
47219;SDS011;32961;51.936;4.788;2023-03-20T13:26:29;27.23;;;9.23;;
47219;SDS011;32961;51.936;4.788;2023-03-20T13:29:05;27.58;;;9.48;;
47219;SDS011;32961;51.936;4.788;2023-03-20T13:31:42;18.42;;;8.80;;
47219;SDS011;32961;51.936;4.788;2023-03-20T13:34:23;29.77;;;8.68;;
47219;SDS011;32961;51.936;4.788;2023-03-20T13:37:00;23.73;;;8.80;;
47219;SDS011;32961;51.936;4.788;2023-03-20T13:39:54;20.05;;;8.68;;
47219;SDS011;32961;51.936;4.788;2023-03-20T13:42:30;27.92;;;11.43;;
47219;SDS011;32961;51.936;4.788;2023-03-20T13:45:05;26.80;;;13.02;;
47219;SDS011;32961;51.936;4.788;2023-03-20T13:47:48;26.50;;;10.48;;
47219;SDS011;32961;51.936;4.788;2023-03-20T13:50:24;22.65;;;10.00;;
47219;SDS011;32961;51.936;4.788;2023-03-20T13:53:00;23.10;;;10.10;;
47219;SDS011;32961;51.936;4.788;2023-03-20T13:55:36;23.63;;;11.10;;
47219;SDS011;32961;51.936;4.788;2023-03-20T13:58:22;25.17;;;9.68;;
47219;SDS011;32961;51.936;4.788;2023-03-20T14:01:10;28.42;;;9.88;;
47219;SDS011;32961;51.936;4.788;2023-03-20T14:03:48;19.13;;;10.85;;
47219;SDS011;32961;51.936;4.788;2023-03-20T14:06:18;19.20;;;9.73;;
47219;SDS011;32961;51.936;4.788;2023-03-20T14:09:28;23.45;;;11.77;;
47219;SDS011;32961;51.936;4.788;2023-03-20T14:12:03;22.58;;;10.93;;
47219;SDS011;32961;51.936;4.788;2023-03-20T14:14:39;22.83;;;11.25;;
47219;SDS011;32961;51.936;4.788;2023-03-20T14:17:15;21.40;;;10.52;;
47219;SDS011;32961;51.936;4.788;2023-03-20T14:19:46;25.92;;;11.48;;
47219;SDS011;32961;51.936;4.788;2023-03-20T14:22:16;26.90;;;10.70;;
47219;SDS011;32961;51.936;4.788;2023-03-20T14:24:50;28.45;;;11.18;;
47219;SDS011;32961;51.936;4.788;2023-03-20T14:27:21;21.15;;;10.43;;
47219;SDS011;32961;51.936;4.788;2023-03-20T14:30:35;25.38;;;11.50;;
47219;SDS011;32961;51.936;4.788;2023-03-20T14:33:21;26.73;;;11.23;;
47219;SDS011;32961;51.936;4.788;2023-03-20T14:36:15;28.40;;;11.95;;
47219;SDS011;32961;51.936;4.788;2023-03-20T14:38:52;29.67;;;13.83;;
47219;SDS011;32961;51.936;4.788;2023-03-20T14:41:30;38.85;;;15.32;;
47219;SDS011;32961;51.936;4.788;2023-03-20T14:44:12;23.55;;;11.15;;
47219;SDS011;32961;51.936;4.788;2023-03-20T14:46:50;25.77;;;11.37;;
47219;SDS011;32961;51.936;4.788;2023-03-20T14:49:28;29.15;;;10.93;;
47219;SDS011;32961;51.936;4.788;2023-03-20T14:52:15;29.38;;;12.57;;
47219;SDS011;32961;51.936;4.788;2023-03-20T14:55:12;33.63;;;12.77;;
47219;SDS011;32961;51.936;4.788;2023-03-20T14:58:00;32.83;;;13.63;;
47219;SDS011;32961;51.936;4.788;2023-03-20T15:00:32;31.85;;;14.80;;
47219;SDS011;32961;51.936;4.788;2023-03-20T15:03:06;37.05;;;14.88;;
47219;SDS011;32961;51.936;4.788;2023-03-20T15:05:38;29.70;;;13.40;;
47219;SDS011;32961;51.936;4.788;2023-03-20T15:08:07;34.80;;;13.88;;
47219;SDS011;32961;51.936;4.788;2023-03-20T15:10:43;31.48;;;14.48;;